Time;durP1;ratioP1;P1;durP2;ratioP2;P2;SDS_P1;SDS_P2;PMS_P1;PMS_P2;Temp;Humidity;BMP_temperature;BMP_pressure;BME280_temperature;BME280_humidity;BME280_pressure;Samples;Min_cycle;Max_cycle;Signal;HPM_P1;HPM_P2
2022/06/28 01:41:47;;;;;;;;;13.80;13.00;;;;;26.40;50.22;98804.72;6309565;27;96273;-70
2022/06/28 01:44:54;;;;;;;;;14.00;14.00;;;;;26.40;50.37;98810.25;6279120;27;97327;-70
2022/06/28 01:48:09;;;;;;;;;15.00;14.00;;;;;26.40;50.42;98810.25;6281810;27;96737;-69
2022/06/28 01:51:30;;;;;;;;;14.60;14.00;;;;;26.39;50.38;98811.44;6272174;27;98907;-69
2022/06/28 01:54:34;;;;;;;;;13.75;13.00;;;;;26.30;50.34;98803.13;6259299;27;97046;-69
2022/06/28 01:57:40;;;;;;;;;15.40;14.00;;;;;26.37;50.26;98820.03;6263401;27;100005;-71
2022/06/28 02:00:44;;;;;;;;;15.00;13.50;;;;;26.33;50.27;98824.59;6259539;27;98436;-71
2022/06/28 02:03:51;;;;;;;;;15.00;15.00;;;;;26.40;50.33;98818.56;6255700;27;96960;-70
2022/06/28 02:07:02;;;;;;;;;15.00;14.40;;;;;26.40;50.02;98822.13;6230071;27;98350;-69
2022/06/28 02:10:11;;;;;;;;;16.00;16.00;;;;;26.44;50.21;98836.91;6268202;27;96979;-70
2022/06/28 02:13:17;;;;;;;;;16.00;14.00;;;;;26.40;50.25;98846.19;6252184;27;97530;-68
2022/06/28 02:16:21;;;;;;;;;15.00;14.60;;;;;26.38;50.42;98843.78;6270192;27;99495;-69
2022/06/28 02:19:26;;;;;;;;;15.50;15.00;;;;;26.36;50.48;98848.00;6254685;27;97464;-70
2022/06/28 02:22:30;;;;;;;;;17.50;15.50;;;;;26.33;50.73;98856.94;6252649;27;98427;-70
2022/06/28 02:25:34;;;;;;;;;16.00;15.00;;;;;26.23;50.85;98853.38;6250752;27;99061;-70
2022/06/28 02:28:38;;;;;;;;;15.00;14.80;;;;;26.21;51.11;98858.41;6253735;27;97421;-69
2022/06/28 02:31:42;;;;;;;;;14.80;12.80;;;;;26.21;51.13;98852.03;6237798;27;96688;-69
2022/06/28 02:41:27;;;;;;;;;17.00;16.00;;;;;26.17;51.56;98862.94;6277670;27;97970;-71
2022/06/28 02:44:34;;;;;;;;;14.80;14.80;;;;;26.08;51.64;98869.59;6263745;27;97477;-70
2022/06/28 02:47:38;;;;;;;;;16.40;15.40;;;;;26.08;51.62;98866.81;6263443;27;97341;-70
2022/06/28 02:50:41;;;;;;;;;14.80;13.20;;;;;26.07;51.66;98870.72;6260388;27;96698;-70
2022/06/28 02:53:45;;;;;;;;;15.33;15.00;;;;;26.09;51.69;98868.47;6246300;27;97108;-70
2022/06/28 02:56:48;;;;;;;;;15.60;14.00;;;;;26.08;51.74;98867.63;6244286;27;97650;-70
2022/06/28 02:59:53;;;;;;;;;16.00;15.00;;;;;26.08;51.58;98875.13;6263120;27;97644;-69
2022/06/28 03:02:56;;;;;;;;;18.50;16.00;;;;;26.05;51.78;98867.44;6261816;27;97518;-72
2022/06/28 03:06:00;;;;;;;;;14.40;14.00;;;;;26.05;52.00;98865.50;6228871;27;97403;-70
2022/06/28 03:09:04;;;;;;;;;14.20;14.20;;;;;26.00;52.18;98859.34;6246090;27;96839;-71
2022/06/28 03:12:09;;;;;;;;;15.25;14.00;;;;;26.01;52.39;98869.25;6246109;27;96843;-72
2022/06/28 03:15:14;;;;;;;;;15.00;14.00;;;;;26.07;52.13;98865.19;6263875;27;97732;-69
2022/06/28 03:18:26;;;;;;;;;15.60;15.00;;;;;26.15;51.94;98865.19;6246658;27;98416;-69
2022/06/28 03:21:29;;;;;;;;;14.00;14.00;;;;;26.20;51.84;98865.03;6246043;27;97737;-69
2022/06/28 03:24:33;;;;;;;;;16.40;14.40;;;;;26.26;51.79;98857.44;6229220;27;98398;-70
2022/06/28 03:27:36;;;;;;;;;15.50;14.00;;;;;26.26;51.93;98861.00;6244490;27;96761;-70
2022/06/28 03:30:43;;;;;;;;;14.60;14.40;;;;;26.29;51.66;98860.34;6244600;27;97156;-70
2022/06/28 03:33:47;;;;;;;;;16.00;14.00;;;;;26.32;51.73;98867.19;6261637;27;97570;-69
2022/06/28 03:36:51;;;;;;;;;18.75;16.00;;;;;26.35;51.44;98866.53;6245700;27;96506;-70
2022/06/28 03:40:17;;;;;;;;;17.60;16.00;;;;;26.36;51.69;98867.34;6232957;27;98471;-70
2022/06/28 03:43:24;;;;;;;;;15.75;14.75;;;;;26.36;51.61;98873.69;6245706;27;97383;-69
2022/06/28 03:46:31;;;;;;;;;16.40;15.40;;;;;26.23;51.80;98835.97;6243576;27;97492;-70
2022/06/28 03:49:55;;;;;;;;;16.00;15.00;;;;;26.46;51.53;98861.47;6232709;27;97758;-68
2022/06/28 03:53:20;;;;;;;;;16.00;14.00;;;;;26.54;51.41;98861.47;6261902;27;98134;-69
2022/06/28 03:56:35;;;;;;;;;21.00;16.00;;;;;26.60;51.38;98862.94;6242734;27;97544;-70
2022/06/28 03:59:39;;;;;;;;;14.60;13.00;;;;;26.63;51.13;98873.31;6242523;27;97565;-70
2022/06/28 04:02:45;;;;;;;;;18.00;16.00;;;;;26.62;51.11;98877.25;6238917;27;96998;-70
2022/06/28 04:05:57;;;;;;;;;14.00;14.00;;;;;26.61;51.30;98869.28;6239950;27;97029;-70
2022/06/28 04:09:01;;;;;;;;;15.25;15.00;;;;;26.60;51.33;98881.47;6243751;27;97428;-70
2022/06/28 04:12:06;;;;;;;;;16.60;15.60;;;;;26.62;51.21;98879.22;6228364;27;97517;-70
2022/06/28 04:15:11;;;;;;;;;14.00;13.00;;;;;26.71;51.59;98877.25;6245614;27;96608;-71
2022/06/28 04:18:16;;;;;;;;;16.00;15.00;;;;;26.84;51.01;98878.19;6243938;27;96951;-69
2022/06/28 04:21:42;;;;;;;;;16.40;16.00;;;;;26.97;50.96;98877.22;6262709;27;96898;-71
2022/06/28 04:24:51;;;;;;;;;15.40;15.00;;;;;27.14;50.71;98871.63;6243442;27;96982;-69
2022/06/28 04:28:02;;;;;;;;;19.00;16.60;;;;;27.32;50.90;98866.84;6227025;27;99134;-70
2022/06/28 04:31:06;;;;;;;;;19.60;17.20;;;;;27.44;49.74;98865.00;6243716;27;97760;-69
2022/06/28 04:34:11;;;;;;;;;17.00;16.00;;;;;27.68;50.02;98874.66;6244536;27;97103;-70
2022/06/28 04:37:18;;;;;;;;;17.00;17.00;;;;;27.90;49.71;98877.16;6245219;27;96699;-70
2022/06/28 04:40:23;;;;;;;;;17.00;17.00;;;;;28.08;49.45;98869.53;6238437;27;97435;-69
2022/06/28 04:43:39;;;;;;;;;20.00;19.00;;;;;28.31;49.07;98871.66;6231705;27;96811;-69
2022/06/28 04:46:42;;;;;;;;;19.00;18.00;;;;;28.56;48.32;98878.13;6260311;27;98025;-68
2022/06/28 04:49:53;;;;;;;;;17.75;16.75;;;;;28.79;47.73;98873.84;6233541;27;96760;-70
2022/06/28 04:52:56;;;;;;;;;16.00;15.00;;;;;28.94;46.21;98882.66;6224742;27;99638;-69
2022/06/28 04:56:00;;;;;;;;;18.00;17.80;;;;;29.15;46.26;98887.00;6228838;27;97410;-69
2022/06/28 04:59:04;;;;;;;;;15.00;15.00;;;;;29.38;46.26;98878.28;6235386;27;97813;-69
2022/06/28 05:02:07;;;;;;;;;16.00;15.00;;;;;29.65;45.70;98875.63;6248294;27;97087;-70
2022/06/28 05:05:12;;;;;;;;;15.75;15.00;;;;;29.95;45.15;98872.63;6246822;27;96610;-69
2022/06/28 05:08:17;;;;;;;;;16.00;15.00;;;;;30.24;44.89;98875.13;6230058;27;96679;-70
2022/06/28 05:11:31;;;;;;;;;15.00;14.00;;;;;30.51;43.38;98874.34;6246746;27;99646;-70
2022/06/28 05:14:45;;;;;;;;;18.00;16.00;;;;;30.67;42.82;98854.94;6246051;27;96730;-70
2022/06/28 05:17:50;;;;;;;;;16.00;15.00;;;;;30.77;42.69;98859.16;6243674;27;97644;-69
2022/06/28 05:20:54;;;;;;;;;17.00;15.00;;;;;30.91;42.13;98863.16;6226474;27;98037;-70
2022/06/28 05:23:58;;;;;;;;;14.00;13.00;;;;;31.02;42.03;98863.47;6223993;27;97951;-70
2022/06/28 05:27:27;;;;;;;;;17.20;16.00;;;;;31.06;42.51;98847.66;6256396;27;97446;-70
2022/06/28 05:30:31;;;;;;;;;15.25;15.25;;;;;31.15;42.67;98856.66;6225066;27;99804;-69
2022/06/28 05:33:34;;;;;;;;;16.67;15.67;;;;;31.21;42.92;98858.00;6259628;27;97118;-70
2022/06/28 05:36:40;;;;;;;;;16.60;16.00;;;;;31.21;42.55;98858.00;6224680;27;98367;-70
2022/06/28 05:39:45;;;;;;;;;17.00;16.60;;;;;31.30;41.38;98855.03;6216516;28;97132;-70
2022/06/28 05:42:48;;;;;;;;;17.00;15.75;;;;;31.40;41.20;98849.75;6216883;28;99463;-69
2022/06/28 05:45:52;;;;;;;;;15.00;15.00;;;;;31.48;41.29;98847.13;6234429;28;96714;-70
2022/06/28 05:48:56;;;;;;;;;17.00;15.00;;;;;31.61;41.70;98852.28;6235194;28;97484;-69
2022/06/28 05:52:00;;;;;;;;;16.00;15.00;;;;;31.67;41.18;98842.44;6233433;28;99371;-70
2022/06/28 05:55:04;;;;;;;;;17.00;16.50;;;;;31.71;40.94;98832.22;6235060;28;97542;-69
2022/06/28 05:58:08;;;;;;;;;20.00;19.00;;;;;31.75;41.18;98832.28;6234640;28;97425;-70
2022/06/28 06:01:12;;;;;;;;;21.40;20.40;;;;;31.77;41.14;98835.50;6234026;27;97889;-69
2022/06/28 06:04:15;;;;;;;;;22.60;21.00;;;;;31.86;41.60;98829.75;6233286;28;96883;-70
2022/06/28 06:07:20;;;;;;;;;27.00;22.80;;;;;31.94;41.77;98821.16;6216492;28;96843;-69
2022/06/28 06:10:23;;;;;;;;;25.40;23.00;;;;;32.06;41.03;98834.97;6237921;27;97241;-70
2022/06/28 06:13:27;;;;;;;;;27.20;23.20;;;;;32.21;40.77;98833.31;6237552;27;96547;-69
2022/06/28 06:16:30;;;;;;;;;23.00;22.00;;;;;32.24;40.18;98829.81;6237604;27;96650;-70
2022/06/28 06:19:34;;;;;;;;;24.60;23.00;;;;;32.19;39.83;98827.31;6237020;27;97711;-70
2022/06/28 06:22:39;;;;;;;;;22.00;20.00;;;;;32.28;40.06;98827.91;6238052;27;97481;-68
2022/06/28 06:26:02;;;;;;;;;22.00;21.00;;;;;32.60;40.36;98836.91;6216545;28;97148;-70
2022/06/28 06:29:06;;;;;;;;;22.00;18.20;;;;;32.84;39.70;98842.19;6228613;28;97617;-70
2022/06/28 06:32:10;;;;;;;;;17.60;17.00;;;;;33.05;39.19;98841.78;6220772;28;99421;-70
2022/06/28 06:35:48;;;;;;;;;18.00;17.80;;;;;33.19;38.42;98844.06;6181094;27;97428;-70
2022/06/28 06:38:54;;;;;;;;;19.60;17.00;;;;;33.21;38.51;98850.09;6255077;27;98072;-69
2022/06/28 06:41:57;;;;;;;;;19.40;17.40;;;;;33.25;38.68;98848.97;6230247;27;99820;-70
2022/06/28 06:45:01;;;;;;;;;17.00;17.00;;;;;33.35;38.85;98850.34;6230274;27;99894;-69
2022/06/28 06:48:04;;;;;;;;;17.00;15.00;;;;;33.39;39.15;98852.00;6265259;27;97941;-70
2022/06/28 06:51:08;;;;;;;;;18.20;16.80;;;;;33.46;38.82;98848.53;6246455;27;98196;-70
2022/06/28 06:54:13;;;;;;;;;17.00;16.00;;;;;33.49;38.97;98861.75;6245644;27;97079;-71
2022/06/28 06:57:16;;;;;;;;;18.00;16.00;;;;;33.49;39.21;98853.34;6246251;27;97511;-70
2022/06/28 07:00:20;;;;;;;;;16.00;16.00;;;;;33.56;39.45;98855.47;6245978;27;96643;-70
2022/06/28 07:03:23;;;;;;;;;17.80;17.00;;;;;33.70;38.93;98855.72;6245367;27;97474;-70
2022/06/28 07:06:27;;;;;;;;;18.25;16.25;;;;;33.82;38.47;98858.28;6264496;27;96574;-68
2022/06/28 07:09:32;;;;;;;;;17.33;17.00;;;;;33.86;38.37;98862.78;6246717;27;97101;-68
2022/06/28 07:12:35;;;;;;;;;15.60;15.00;;;;;34.01;37.73;98865.78;6247034;27;96911;-69
2022/06/28 07:15:40;;;;;;;;;15.20;15.00;;;;;34.20;37.23;98869.28;6229752;27;97191;-69
2022/06/28 07:18:44;;;;;;;;;15.60;14.60;;;;;34.49;37.58;98872.47;6246706;27;97234;-69
2022/06/28 07:21:48;;;;;;;;;17.00;16.00;;;;;34.78;37.46;98866.03;6227750;27;98361;-69
2022/06/28 07:24:53;;;;;;;;;17.00;15.00;;;;;34.98;35.79;98861.88;6244733;27;97334;-68
2022/06/28 07:27:57;;;;;;;;;16.00;14.40;;;;;35.17;35.90;98864.47;6227766;27;96887;-69
2022/06/28 07:31:01;;;;;;;;;15.80;14.20;;;;;35.34;35.70;98860.22;6227819;27;96690;-68
2022/06/28 07:34:04;;;;;;;;;15.00;14.60;;;;;35.59;35.78;98861.22;6245761;27;97085;-69
2022/06/28 07:37:08;;;;;;;;;16.75;15.00;;;;;35.73;34.72;98852.16;6245141;27;97399;-70
2022/06/28 07:40:16;;;;;;;;;14.00;14.00;;;;;35.85;34.98;98860.25;6246163;27;96681;-69
2022/06/28 07:43:41;;;;;;;;;17.60;15.60;;;;;36.05;35.05;98846.75;6223377;27;96738;-69
2022/06/28 07:46:52;;;;;;;;;14.75;13.75;;;;;36.27;34.39;98847.69;6245516;27;96566;-70
2022/06/28 07:53:17;;;;;;;;;16.60;16.00;;;;;36.64;34.13;98845.47;6234601;27;97426;-69
2022/06/28 07:56:41;;;;;;;;;17.00;14.00;;;;;36.87;33.94;98842.31;6261459;27;96565;-70
2022/06/28 07:59:45;;;;;;;;;16.50;15.75;;;;;37.13;33.74;98841.19;6244295;27;98089;-69
2022/06/28 08:02:49;;;;;;;;;16.40;15.00;;;;;37.29;32.67;98838.78;6261133;27;96652;-69
2022/06/28 08:05:53;;;;;;;;;15.60;15.00;;;;;37.44;31.30;98842.41;6242269;27;97417;-71
2022/06/28 08:09:00;;;;;;;;;16.00;15.00;;;;;37.63;32.24;98840.00;6245494;27;97315;-69
2022/06/28 08:12:07;;;;;;;;;15.00;15.00;;;;;37.79;31.60;98850.03;6228068;27;97858;-69
2022/06/28 08:15:11;;;;;;;;;16.60;15.60;;;;;37.93;32.02;98859.28;6245588;27;97425;-69
2022/06/28 08:18:15;;;;;;;;;14.80;13.20;;;;;38.09;31.19;98842.78;6245034;27;96723;-68
2022/06/28 08:21:20;;;;;;;;;16.60;15.00;;;;;38.02;31.47;98836.38;6228497;27;97719;-68
2022/06/28 08:24:23;;;;;;;;;14.20;14.00;;;;;38.35;31.00;98855.56;6244157;27;98618;-70
2022/06/28 08:27:28;;;;;;;;;16.50;15.00;;;;;38.66;28.65;98855.88;6227850;27;100003;-70
2022/06/28 08:30:31;;;;;;;;;15.00;13.40;;;;;38.84;29.25;98850.94;6245280;27;96981;-70
2022/06/28 08:33:35;;;;;;;;;14.00;13.00;;;;;39.12;28.27;98853.63;6246776;27;97512;-69
2022/06/28 08:36:39;;;;;;;;;12.80;11.20;;;;;39.40;27.94;98861.88;6243005;27;97371;-69
2022/06/28 08:39:42;;;;;;;;;13.00;12.25;;;;;39.45;26.57;98855.00;6259089;27;96785;-70
2022/06/28 08:42:49;;;;;;;;;13.50;13.00;;;;;39.51;26.86;98866.63;6244774;27;97531;-71
2022/06/28 08:45:53;;;;;;;;;14.00;13.00;;;;;39.70;26.54;98871.72;6227541;27;97473;-69
2022/06/28 08:49:04;;;;;;;;;11.00;11.00;;;;;39.84;25.87;98863.94;6262034;27;97388;-69
2022/06/28 08:52:10;;;;;;;;;12.00;12.00;;;;;39.90;25.86;98867.13;6227180;27;99428;-69
2022/06/28 08:55:13;;;;;;;;;13.40;13.00;;;;;39.89;25.71;98864.69;6242790;27;97798;-70
2022/06/28 08:58:21;;;;;;;;;12.00;11.00;;;;;39.90;25.55;98869.94;6262083;27;97460;-70
2022/06/28 09:01:24;;;;;;;;;12.60;12.00;;;;;40.08;25.08;98864.91;6243230;27;98040;-70
2022/06/28 09:04:34;;;;;;;;;13.00;12.00;;;;;40.29;25.34;98863.91;6262178;27;97374;-70
2022/06/28 09:07:38;;;;;;;;;11.00;11.00;;;;;40.42;24.16;98855.69;6243696;27;98375;-69
2022/06/28 09:10:42;;;;;;;;;12.00;11.50;;;;;40.36;23.46;98846.88;6262556;27;97070;-70
2022/06/28 09:13:54;;;;;;;;;12.00;11.40;;;;;40.43;24.41;98846.78;6243391;27;96806;-69
2022/06/28 09:16:58;;;;;;;;;11.20;11.20;;;;;40.56;23.68;98847.84;6260835;27;96712;-69
2022/06/28 09:20:06;;;;;;;;;10.75;10.75;;;;;40.52;23.57;98843.44;6262050;27;97449;-69
2022/06/28 09:23:23;;;;;;;;;9.00;8.40;;;;;40.15;22.33;98839.41;6262197;27;97024;-69
2022/06/28 09:26:26;;;;;;;;;9.00;8.00;;;;;40.04;22.48;98852.84;6262743;27;96633;-68
2022/06/28 09:29:46;;;;;;;;;9.00;8.60;;;;;40.00;23.22;98852.09;6261913;27;97893;-70
2022/06/28 09:32:50;;;;;;;;;9.00;8.00;;;;;40.06;23.00;98850.41;6262035;27;97480;-69
2022/06/28 09:35:53;;;;;;;;;8.25;7.00;;;;;40.15;22.87;98849.91;6227130;27;97969;-69
2022/06/28 09:39:20;;;;;;;;;9.40;8.60;;;;;40.18;23.11;98849.06;6244407;27;97455;-69
2022/06/28 09:42:23;;;;;;;;;9.00;8.40;;;;;40.43;22.25;98871.41;6243568;27;99454;-69
2022/06/28 09:45:28;;;;;;;;;8.20;8.00;;;;;40.69;22.74;98859.41;6262316;27;96706;-68
2022/06/28 09:48:37;;;;;;;;;8.00;8.00;;;;;40.86;21.77;98852.69;6262465;27;97511;-68
2022/06/28 09:51:41;;;;;;;;;10.00;9.00;;;;;40.95;21.34;98849.34;6262084;27;98114;-70
2022/06/28 09:54:51;;;;;;;;;10.00;10.00;;;;;40.89;21.56;98846.19;6262222;27;96546;-70
2022/06/28 09:57:55;;;;;;;;;9.00;9.00;;;;;40.98;21.84;98854.13;6243879;27;96601;-69
2022/06/28 10:01:00;;;;;;;;;11.60;11.00;;;;;41.18;21.88;98869.22;6243775;27;97378;-69
2022/06/28 10:04:05;;;;;;;;;12.00;11.00;;;;;41.32;21.67;98869.00;6266493;27;96528;-68
2022/06/28 10:07:10;;;;;;;;;10.00;9.75;;;;;41.23;21.42;98873.59;6266223;27;97355;-69
2022/06/28 10:10:15;;;;;;;;;10.75;10.00;;;;;40.80;21.59;98891.16;6266442;27;96540;-68
2022/06/28 10:16:48;;;;;;;;;9.00;8.40;;;;;38.93;24.74;98933.06;6265828;27;97408;-69
2022/06/28 10:19:52;;;;;;;;;7.00;7.00;;;;;37.90;25.10;98933.25;6266416;27;96595;-69
2022/06/28 10:23:24;;;;;;;;;8.00;8.00;;;;;37.05;26.37;98926.66;6265692;27;97206;-69
2022/06/28 10:26:27;;;;;;;;;7.00;7.00;;;;;36.30;26.89;98937.56;6266344;27;96717;-69
2022/06/28 10:29:31;;;;;;;;;8.00;8.00;;;;;35.29;28.79;98925.03;6244544;27;96787;-69
2022/06/28 10:32:43;;;;;;;;;7.00;7.00;;;;;34.44;30.77;98934.38;6246757;27;98137;-68
2022/06/28 10:35:56;;;;;;;;;7.00;7.00;;;;;33.82;31.69;98900.25;6247155;27;97220;-69
2022/06/28 10:39:16;;;;;;;;;6.40;6.40;;;;;33.27;31.21;98910.88;6266144;27;97445;-69
2022/06/28 10:42:19;;;;;;;;;6.00;6.00;;;;;32.78;32.72;98919.09;6246271;27;99347;-69
2022/06/28 10:45:24;;;;;;;;;8.00;7.60;;;;;31.73;36.43;98952.50;6247638;27;96977;-69
2022/06/28 10:48:30;;;;;;;;;8.00;7.00;;;;;31.55;37.87;98981.06;6265086;27;97467;-69
2022/06/28 10:51:35;;;;;;;;;8.00;8.00;;;;;31.09;39.35;98972.25;6247155;27;97253;-69
2022/06/28 10:54:40;;;;;;;;;10.00;9.00;;;;;30.59;40.95;98960.84;6263058;27;96323;-69
2022/06/28 10:57:45;;;;;;;;;10.00;9.60;;;;;30.28;42.37;99003.97;6265188;27;96707;-69
2022/06/28 11:00:54;;;;;;;;;8.00;7.00;;;;;29.86;44.44;99008.13;6263845;27;97153;-68
2022/06/28 11:04:12;;;;;;;;;8.00;8.00;;;;;29.33;46.54;99004.28;6246295;27;96959;-68
2022/06/28 11:07:23;;;;;;;;;9.20;9.00;;;;;28.77;48.95;98991.88;6263980;27;97575;-68
2022/06/28 11:10:28;;;;;;;;;9.00;9.00;;;;;28.62;48.63;98989.69;6246670;27;97012;-68
2022/06/28 11:13:32;;;;;;;;;8.00;7.00;;;;;28.32;49.91;99006.38;6264069;27;96894;-68
2022/06/28 11:16:46;;;;;;;;;8.00;8.00;;;;;28.16;49.81;99004.50;6263297;27;96733;-70
2022/06/28 11:19:53;;;;;;;;;9.00;9.00;;;;;27.90;50.86;99019.28;6263981;27;97322;-70
2022/06/28 11:22:57;;;;;;;;;7.00;7.00;;;;;27.64;51.14;99015.78;6259764;27;96701;-70
2022/06/28 11:29:37;;;;;;;;;8.00;7.00;;;;;27.40;52.80;99026.56;6261304;27;97147;-69
2022/06/28 11:32:43;;;;;;;;;9.20;9.00;;;;;27.39;53.28;99017.44;6245857;27;96679;-69
2022/06/28 11:35:48;;;;;;;;;10.00;10.00;;;;;27.57;53.44;99015.47;6263745;27;96872;-68
2022/06/28 11:38:51;;;;;;;;;13.00;11.00;;;;;27.63;55.15;99007.81;6264022;27;97737;-68
2022/06/28 11:41:56;;;;;;;;;12.00;11.00;;;;;27.74;55.20;98996.03;6264488;27;96467;-69
2022/06/28 11:45:01;;;;;;;;;10.00;9.80;;;;;27.88;55.07;98995.81;6245888;27;96831;-69
2022/06/28 11:48:05;;;;;;;;;14.00;12.20;;;;;27.94;56.08;98994.50;6263927;27;96519;-69
2022/06/28 11:51:10;;;;;;;;;13.00;12.00;;;;;27.98;56.53;99006.53;6244864;27;96820;-69
2022/06/28 11:54:16;;;;;;;;;14.00;13.00;;;;;28.13;55.73;99032.91;6245731;27;97093;-69
2022/06/28 11:57:19;;;;;;;;;16.60;14.00;;;;;28.19;56.24;99050.97;6264271;27;97010;-68
2022/06/28 12:00:23;;;;;;;;;12.60;12.00;;;;;28.32;56.17;99061.81;6245293;27;97229;-68
2022/06/28 12:03:27;;;;;;;;;15.00;14.00;;;;;28.37;56.93;99078.28;6245712;27;100205;-68
2022/06/28 12:06:33;;;;;;;;;17.50;15.00;;;;;28.34;56.61;99067.03;6245468;27;96537;-68
2022/06/28 12:09:46;;;;;;;;;15.40;15.00;;;;;28.30;56.70;99058.56;6264130;27;97570;-69
2022/06/28 12:12:49;;;;;;;;;13.20;13.00;;;;;28.47;57.01;99084.59;6258498;27;96898;-69
2022/06/28 12:15:53;;;;;;;;;17.00;15.00;;;;;28.35;57.29;99082.50;6263343;27;97482;-69
2022/06/28 12:18:57;;;;;;;;;18.40;16.40;;;;;28.33;57.60;99087.59;6245313;27;97550;-68
2022/06/28 12:22:04;;;;;;;;;18.00;16.00;;;;;28.24;58.40;99082.09;6239086;27;96924;-69
2022/06/28 12:25:12;;;;;;;;;16.00;16.00;;;;;28.28;58.34;99091.38;6226690;27;97831;-69
2022/06/28 12:28:15;;;;;;;;;15.20;15.00;;;;;28.24;59.08;99090.41;6245161;27;96705;-69
2022/06/28 12:31:19;;;;;;;;;18.00;18.00;;;;;28.12;59.23;99086.69;6261990;27;96598;-68
2022/06/28 12:34:22;;;;;;;;;17.00;16.50;;;;;28.19;59.52;99084.25;6242147;27;97823;-68
2022/06/28 12:37:28;;;;;;;;;17.60;16.60;;;;;27.92;61.02;99090.97;6244593;27;98246;-68
2022/06/28 12:40:31;;;;;;;;;17.00;17.00;;;;;27.95;61.24;99079.25;6262407;27;96870;-68
2022/06/28 12:43:34;;;;;;;;;21.20;19.20;;;;;28.00;61.68;99087.38;6262739;27;97392;-69
2022/06/28 12:46:39;;;;;;;;;21.50;19.00;;;;;27.98;62.77;99084.13;6236445;28;96666;-69
2022/06/28 12:49:43;;;;;;;;;22.00;20.00;;;;;27.90;64.39;99085.78;6244413;27;97948;-70
2022/06/28 12:52:48;;;;;;;;;23.00;20.00;;;;;27.92;64.95;99085.44;6243742;27;97753;-69
2022/06/28 12:55:51;;;;;;;;;20.40;19.80;;;;;27.94;65.16;99083.16;6262384;27;97360;-68
2022/06/28 12:58:56;;;;;;;;;24.00;20.50;;;;;28.01;65.64;99075.13;6262461;27;97511;-68
2022/06/28 13:02:00;;;;;;;;;23.00;22.00;;;;;28.15;65.82;99058.34;6262386;27;98190;-70
2022/06/28 13:05:04;;;;;;;;;22.25;21.00;;;;;28.33;65.25;99046.00;6227588;27;96712;-68
2022/06/28 13:08:10;;;;;;;;;26.00;24.00;;;;;28.38;65.17;99038.31;6244141;27;97448;-68
2022/06/28 13:11:14;;;;;;;;;24.50;23.00;;;;;28.34;65.86;99036.53;6262653;27;97476;-69
2022/06/28 13:14:17;;;;;;;;;28.40;26.00;;;;;28.45;65.51;99026.66;6244391;27;96588;-70
2022/06/28 13:17:24;;;;;;;;;24.00;23.00;;;;;28.64;65.40;99029.81;6243182;27;96936;-70
2022/06/28 13:20:28;;;;;;;;;27.20;24.20;;;;;28.72;65.14;99020.66;6262145;27;97585;-69
2022/06/28 13:23:36;;;;;;;;;25.40;25.00;;;;;28.85;64.20;99027.06;6262234;27;96630;-69
2022/06/28 13:26:41;;;;;;;;;30.00;26.00;;;;;28.79;63.68;98995.94;6243164;27;97048;-70
2022/06/28 13:29:44;;;;;;;;;26.40;25.00;;;;;29.19;63.65;99031.50;6242709;27;99374;-70
2022/06/28 13:32:48;;;;;;;;;28.50;26.00;;;;;29.32;62.98;99030.44;6243181;27;97889;-70
2022/06/28 13:35:51;;;;;;;;;28.00;26.00;;;;;29.38;62.84;99023.50;6262238;27;96979;-69
2022/06/28 13:38:56;;;;;;;;;30.80;27.40;;;;;29.48;61.14;99025.84;6243355;27;96663;-69
2022/06/28 13:42:12;;;;;;;;;29.40;26.40;;;;;29.46;61.31;99014.28;6243881;27;96594;-69
2022/06/28 13:45:16;;;;;;;;;30.00;27.00;;;;;29.52;61.43;99015.69;6261256;27;98105;-69
2022/06/28 13:48:20;;;;;;;;;33.00;29.00;;;;;29.48;61.57;99011.16;6260553;27;96579;-68
2022/06/28 13:51:23;;;;;;;;;28.00;25.00;;;;;29.74;60.58;99010.88;6257331;27;98060;-68
2022/06/28 13:54:28;;;;;;;;;29.75;29.00;;;;;29.82;60.33;99018.28;6241678;27;100604;-68
2022/06/28 13:57:39;;;;;;;;;30.00;29.33;;;;;29.86;60.40;99024.78;6242263;27;97558;-69
2022/06/28 14:00:43;;;;;;;;;30.40;27.00;;;;;29.88;59.96;99016.91;6261772;27;97592;-69
2022/06/28 14:03:47;;;;;;;;;28.00;26.20;;;;;30.09;60.20;99017.66;6226198;27;98829;-68
2022/06/28 14:06:51;;;;;;;;;27.00;26.00;;;;;30.31;58.99;99021.91;6229118;27;96747;-69
2022/06/28 14:09:56;;;;;;;;;26.40;24.40;;;;;30.47;58.00;99018.13;6260691;27;98060;-68
2022/06/28 14:13:01;;;;;;;;;24.00;22.00;;;;;30.53;57.43;99013.94;6261438;27;96558;-70
2022/06/28 14:16:05;;;;;;;;;24.00;22.00;;;;;30.83;56.86;99005.28;6243070;27;96728;-69
2022/06/28 14:19:08;;;;;;;;;20.20;20.20;;;;;30.97;55.47;99012.09;6261011;27;97734;-68
2022/06/28 14:22:12;;;;;;;;;23.00;21.00;;;;;31.03;55.03;99011.88;6242817;27;98541;-68
2022/06/28 14:25:18;;;;;;;;;20.60;18.60;;;;;31.01;54.60;99008.59;6260266;27;97820;-68
2022/06/28 14:28:21;;;;;;;;;22.00;19.00;;;;;30.97;54.95;99000.13;6242109;27;96837;-68
2022/06/28 14:31:35;;;;;;;;;19.00;17.00;;;;;31.02;54.38;99008.28;6228716;27;97105;-69
2022/06/28 14:34:48;;;;;;;;;18.00;17.00;;;;;31.03;53.92;99012.69;6257491;27;96516;-69
2022/06/28 14:37:51;;;;;;;;;16.00;15.00;;;;;30.93;53.69;99008.41;6261072;27;96465;-69
2022/06/28 14:40:56;;;;;;;;;13.00;13.00;;;;;30.85;53.71;99014.09;6258791;27;97597;-69
2022/06/28 14:43:59;;;;;;;;;15.00;14.40;;;;;30.58;53.76;99012.88;6242180;27;96993;-69
2022/06/28 14:47:03;;;;;;;;;13.00;12.00;;;;;30.58;53.80;99017.63;6243552;27;98109;-69
2022/06/28 14:50:08;;;;;;;;;10.00;9.20;;;;;30.50;53.35;99025.75;6228347;27;98352;-69
2022/06/28 14:53:12;;;;;;;;;10.00;9.00;;;;;30.41;53.29;99024.22;6264909;27;97415;-69
2022/06/28 14:56:24;;;;;;;;;11.00;10.00;;;;;30.47;53.36;99032.03;6246931;27;96966;-69
2022/06/28 14:59:28;;;;;;;;;9.00;8.60;;;;;30.23;53.74;99047.88;6244689;27;97812;-69
2022/06/28 15:02:31;;;;;;;;;10.00;8.40;;;;;30.26;54.15;99044.41;6262932;27;97450;-69
2022/06/28 15:05:35;;;;;;;;;7.80;6.80;;;;;30.30;54.12;99050.91;6224741;27;100207;-69
2022/06/28 15:08:39;;;;;;;;;8.00;7.00;;;;;30.24;53.66;99053.09;6261971;27;98131;-69
2022/06/28 15:11:43;;;;;;;;;7.00;6.60;;;;;30.25;52.87;99051.16;6260608;27;97165;-69
2022/06/28 15:14:48;;;;;;;;;7.00;6.60;;;;;30.23;52.52;99053.44;6262564;27;97559;-68
2022/06/28 15:17:52;;;;;;;;;7.40;7.00;;;;;30.27;52.31;99054.38;6248951;27;96719;-68
2022/06/28 15:20:55;;;;;;;;;7.00;7.00;;;;;30.05;53.06;99064.00;6242015;27;98136;-69
2022/06/28 15:30:54;;;;;;;;;8.00;7.00;;;;;30.10;53.11;99077.66;6259895;27;96758;-68
2022/06/28 15:33:58;;;;;;;;;8.00;8.00;;;;;30.21;52.60;99067.69;6233955;27;99577;-68
2022/06/28 15:37:01;;;;;;;;;8.60;7.60;;;;;30.05;52.53;99072.34;6260077;27;97426;-68
2022/06/28 15:40:06;;;;;;;;;8.25;7.75;;;;;30.02;53.00;99068.25;6236415;28;97021;-69
2022/06/28 15:43:10;;;;;;;;;10.40;10.00;;;;;30.03;52.50;99064.31;6237870;28;97822;-68
2022/06/28 15:46:14;;;;;;;;;10.00;9.00;;;;;30.11;52.27;99066.19;6236755;28;97904;-68
2022/06/28 15:49:17;;;;;;;;;11.00;10.00;;;;;30.19;52.41;99058.91;6235996;28;97770;-69
2022/06/28 15:52:21;;;;;;;;;11.00;9.00;;;;;30.23;52.50;99056.22;6244699;27;96618;-68
2022/06/28 15:55:24;;;;;;;;;9.00;8.00;;;;;30.23;51.90;99053.44;6237209;28;96607;-68
2022/06/28 15:58:29;;;;;;;;;10.00;10.00;;;;;30.26;51.98;99061.09;6235511;27;97989;-69
2022/06/28 16:01:32;;;;;;;;;11.00;10.00;;;;;30.37;51.84;99063.06;6217709;28;97955;-68
2022/06/28 16:04:36;;;;;;;;;10.00;10.00;;;;;30.41;51.53;99077.09;6222451;28;97981;-68
2022/06/28 16:07:40;;;;;;;;;10.00;10.00;;;;;30.42;51.58;99071.19;6237305;27;97919;-70
2022/06/28 16:10:43;;;;;;;;;11.00;10.20;;;;;30.55;51.94;99064.47;6235430;28;97406;-70
2022/06/28 16:13:48;;;;;;;;;13.00;12.00;;;;;30.65;51.15;99056.81;6233058;28;97700;-70
2022/06/28 16:16:52;;;;;;;;;11.40;9.00;;;;;30.75;51.17;99062.69;6237841;28;97535;-69
2022/06/28 16:19:55;;;;;;;;;11.00;10.00;;;;;30.90;50.78;99067.53;6237746;28;97559;-69
2022/06/28 16:23:18;;;;;;;;;9.25;9.00;;;;;31.03;50.21;99068.38;6236718;28;96535;-69